地図

経路データ

SID SEASON NUMBER BASIN SUBBASIN NAME ISO_TIME NATURE LAT LON WMO_WIND WMO_PRES WMO_AGENCY TRACK_TYPE DIST2LAND LANDFALL IFLAG USA_AGENCY USA_ATCF_ID USA_LAT USA_LON USA_RECORD USA_STATUS USA_WIND USA_PRES USA_SSHS USA_R34_NE USA_R34_SE USA_R34_SW USA_R34_NW USA_R50_NE USA_R50_SE USA_R50_SW USA_R50_NW USA_R64_NE USA_R64_SE USA_R64_SW USA_R64_NW USA_POCI USA_ROCI USA_RMW USA_EYE TOKYO_LAT TOKYO_LON TOKYO_GRADE TOKYO_WIND TOKYO_PRES TOKYO_R50_DIR TOKYO_R50_LONG TOKYO_R50_SHORT TOKYO_R30_DIR TOKYO_R30_LONG TOKYO_R30_SHORT TOKYO_LAND CMA_LAT CMA_LON CMA_CAT CMA_WIND CMA_PRES HKO_LAT HKO_LON HKO_CAT HKO_WIND HKO_PRES NEWDELHI_LAT NEWDELHI_LON NEWDELHI_GRADE NEWDELHI_WIND NEWDELHI_PRES NEWDELHI_CI NEWDELHI_DP NEWDELHI_POCI REUNION_LAT REUNION_LON REUNION_TYPE REUNION_WIND REUNION_PRES REUNION_TNUM REUNION_CI REUNION_RMW REUNION_R34_NE REUNION_R34_SE REUNION_R34_SW REUNION_R34_NW REUNION_R50_NE REUNION_R50_SE REUNION_R50_SW REUNION_R50_NW REUNION_R64_NE REUNION_R64_SE REUNION_R64_SW REUNION_R64_NW BOM_LAT BOM_LON BOM_TYPE BOM_WIND BOM_PRES BOM_TNUM BOM_CI BOM_RMW BOM_R34_NE BOM_R34_SE BOM_R34_SW BOM_R34_NW BOM_R50_NE BOM_R50_SE BOM_R50_SW BOM_R50_NW BOM_R64_NE BOM_R64_SE BOM_R64_SW BOM_R64_NW BOM_ROCI BOM_POCI BOM_EYE BOM_POS_METHOD BOM_PRES_METHOD NADI_LAT NADI_LON NADI_CAT NADI_WIND NADI_PRES WELLINGTON_LAT WELLINGTON_LON WELLINGTON_WIND WELLINGTON_PRES DS824_LAT DS824_LON DS824_STAGE DS824_WIND DS824_PRES TD9636_LAT TD9636_LON TD9636_STAGE TD9636_WIND TD9636_PRES TD9635_LAT TD9635_LON TD9635_WIND TD9635_PRES TD9635_ROCI NEUMANN_LAT NEUMANN_LON NEUMANN_CLASS NEUMANN_WIND NEUMANN_PRES MLC_LAT MLC_LON MLC_CLASS MLC_WIND MLC_PRES USA_GUST BOM_GUST BOM_GUST_PER REUNION_GUST REUNION_GUST_PER USA_SEAHGT USA_SEARAD_NE USA_SEARAD_SE USA_SEARAD_SW USA_SEARAD_NW STORM_SPEED STORM_DIR
1900171N15117 1900 9 WP MM NOT_NAMED 1900-06-19 16:00:00 NR 15.3000 117.300 main 268 265 __________O___ -1 15.3000 117.300 7 4 338
1900171N15117 1900 9 WP MM NOT_NAMED 1900-06-19 18:00:00 NR 15.4370 117.245 main 276 271 __________P___ -1 15.4370 117.245 7 5 338
1900171N15117 1900 9 WP MM NOT_NAMED 1900-06-19 21:00:00 NR 15.6475 117.151 main 271 279 __________P___ -1 15.6475 117.151 7 5 335
1900171N15117 1900 9 WP MM NOT_NAMED 1900-06-20 00:00:00 NR 15.8704 117.031 main 288 288 __________P___ -1 15.8704 117.031 7 5 329
1900171N15117 1900 9 WP MM NOT_NAMED 1900-06-20 03:00:00 NR 16.1133 116.867 main 299 299 __________P___ -1 16.1133 116.867 7 6 326
1900171N15117 1900 9 WP MM NOT_NAMED 1900-06-20 04:00:00 NR 16.2000 116.800 main 310 310 __________O___ -1 16.2000 116.800 7 7 322
1900171N15117 1900 9 WP MM NOT_NAMED 1900-06-20 06:00:00 NR 16.3828 116.645 main 334 334 __________P___ -1 16.3828 116.645 7 8 318
1900171N15117 1900 9 WP MM NOT_NAMED 1900-06-20 09:00:00 NR 16.6759 116.362 main 360 371 __________P___ -1 16.6759 116.362 7 8 315
1900171N15117 1900 9 WP MM NOT_NAMED 1900-06-20 12:00:00 NR 16.9834 116.024 main 410 410 __________P___ -1 16.9834 116.024 7 9 312
1900171N15117 1900 9 WP MM NOT_NAMED 1900-06-20 15:00:00 NR 17.2962 115.638 main 460 460 __________P___ -1 17.2962 115.638 7 10 310
1900171N15117 1900 9 WP MM NOT_NAMED 1900-06-20 16:00:00 NR 17.4000 115.500 main 473 473 __________O___ -1 17.4000 115.500 7 11 307
1900171N15117 1900 9 WP MM NOT_NAMED 1900-06-20 18:00:00 NR 17.6108 115.200 main 495 433 __________P___ -1 17.6108 115.200 7 11 305
1900171N15117 1900 9 WP MM NOT_NAMED 1900-06-20 21:00:00 NR 17.9272 114.711 main 433 371 __________P___ -1 17.9272 114.711 7 11 303
1900171N15117 1900 9 WP MM NOT_NAMED 1900-06-21 00:00:00 NR 18.2323 114.211 main 371 309 __________P___ -1 18.2323 114.211 7 11 303
1900171N15117 1900 9 WP MM NOT_NAMED 1900-06-21 03:00:00 NR 18.5136 113.742 main 309 295 __________P___ -1 18.5136 113.742 7 10 302
1900171N15117 1900 9 WP MM NOT_NAMED 1900-06-21 04:00:00 NR 18.6000 113.600 main 295 267 __________O___ -1 18.6000 113.600 7 9 305
1900171N15117 1900 9 WP MM NOT_NAMED 1900-06-21 06:00:00 NR 18.7581 113.375 main 267 230 __________P___ -1 18.7581 113.375 7 7 307
1900171N15117 1900 9 WP MM NOT_NAMED 1900-06-21 09:00:00 NR 18.9705 113.083 main 230 194 __________P___ -1 18.9705 113.083 7 7 307
1900171N15117 1900 9 WP MM NOT_NAMED 1900-06-21 12:00:00 NR 19.1618 112.808 main 194 160 __________P___ -1 19.1618 112.808 7 7 304
1900171N15117 1900 9 WP MM NOT_NAMED 1900-06-21 15:00:00 NR 19.3412 112.511 main 160 148 __________P___ -1 19.3412 112.511 7 7 302
1900171N15117 1900 9 WP MM NOT_NAMED 1900-06-21 16:00:00 NR 19.4000 112.400 main 148 115 __________O___ -1 19.4000 112.400 2 8 298
1900171N15117 1900 9 WP MM NOT_NAMED 1900-06-21 18:00:00 NR 19.5331 112.124 main 115 74 __________P___ -1 19.5331 112.124 2 9 295
1900171N15117 1900 9 WP MM NOT_NAMED 1900-06-21 21:00:00 NR 19.7266 111.672 main 74 31 __________P___ -1 19.7266 111.672 2 9 293
1900171N15117 1900 9 WP MM NOT_NAMED 1900-06-22 00:00:00 NR 19.9042 111.201 main 31 0 __________P___ -1 19.9042 111.201 2 9 291
1900171N15117 1900 9 WP MM NOT_NAMED 1900-06-22 03:00:00 NR 20.0564 110.744 main 0 0 __________P___ -1 20.0564 110.744 2 9 289
1900171N15117 1900 9 WP MM NOT_NAMED 1900-06-22 04:00:00 NR 20.1000 110.600 main 0 0 __________O___ -1 20.1000 110.600 2 8 288
1900171N15117 1900 9 WP MM NOT_NAMED 1900-06-22 06:00:00 NR 20.1750 110.349 main 0 0 __________P___ -1 20.1750 110.349 2 7 286
1900171N15117 1900 9 WP MM NOT_NAMED 1900-06-22 09:00:00 NR 20.2626 109.997 main 0 0 __________P___ -1 20.2626 109.997 2 7 283
1900171N15117 1900 9 WP MM NOT_NAMED 1900-06-22 12:00:00 NR 20.3289 109.660 main 20 30 __________P___ -1 20.3289 109.660 2 6 281
1900171N15117 1900 9 WP MM NOT_NAMED 1900-06-22 15:00:00 NR 20.3830 109.318 main 53 53 __________P___ -1 20.3830 109.318 2 7 279
1900171N15117 1900 9 WP MM NOT_NAMED 1900-06-22 16:00:00 NR 20.4000 109.200 main 63 63 __________O___ -1 20.4000 109.200 2 7 278
1900171N15117 1900 9 WP MM NOT_NAMED 1900-06-22 18:00:00 NR 20.4338 108.954 main 74 79 __________P___ -1 20.4338 108.954 2 7 278
1900171N15117 1900 9 WP MM NOT_NAMED 1900-06-22 21:00:00 NR 20.4844 108.565 main 107 100 __________P___ -1 20.4844 108.565 2 8 278
1900171N15117 1900 9 WP MM NOT_NAMED 1900-06-23 00:00:00 NR 20.5344 108.157 main 100 54 __________P___ -1 20.5344 108.157 2 8 277
1900171N15117 1900 9 WP MM NOT_NAMED 1900-06-23 03:00:00 NR 20.5838 107.740 main 54 49 __________P___ -1 20.5838 107.740 2 8 277
1900171N15117 1900 9 WP MM NOT_NAMED 1900-06-23 04:00:00 NR 20.6000 107.600 main 49 __________O___ -1 20.6000 107.600 7 8 277

デジタル台風データ・検索

IBTrACS Databaseについて

本データベースは、米国NOAAが公開する1842年以降の世界の熱帯低気圧のベストトラックデータアーカイブInternational Best Track Archive for Climate Stewardship (IBTrACS)を、ウェブで閲覧しやすい形式に変換したものです。

最終更新日:2021-10-25